createdAt,value
2023-04-07T00:06:50.853Z,100465.59
2023-04-07T00:10:23.575Z,100470.41
2023-04-07T00:13:54.936Z,100469.39
2023-04-07T00:17:25.167Z,100469.05
2023-04-07T00:20:56.492Z,100458.80
2023-04-07T00:24:34.660Z,100457.23
2023-04-07T00:42:57.778Z,100442.02
2023-04-07T00:46:33.326Z,100433.48
2023-04-07T00:50:06.142Z,100433.79
2023-04-07T00:53:35.643Z,100426.26
2023-04-07T01:12:24.591Z,100415.52
2023-04-07T01:15:55.273Z,100407.34
2023-04-07T01:24:00.545Z,100398.59
2023-04-07T01:34:58.382Z,100380.15
2023-04-07T01:38:38.951Z,100377.58
2023-04-07T01:42:14.934Z,100372.98
2023-04-07T01:45:45.205Z,100365.62
2023-04-07T01:49:26.485Z,100365.45
2023-04-07T01:53:15.210Z,100362.22
2023-04-07T02:00:53.282Z,100356.42
2023-04-07T02:12:56.983Z,100348.55
2023-04-07T02:16:16.182Z,100345.64
2023-04-07T02:20:16.682Z,100345.14
2023-04-07T02:23:48.548Z,100343.96
2023-04-07T02:28:01.523Z,100341.05
2023-04-07T02:30:47.215Z,100339.50
2023-04-07T02:34:21.233Z,100340.02
2023-04-07T02:37:53.154Z,100333.85
2023-04-07T02:41:25.906Z,100333.66
2023-04-07T02:45:04.026Z,100330.41
2023-04-07T02:48:34.039Z,100328.88
2023-04-07T02:52:12.646Z,100325.27
2023-04-07T03:04:03.610Z,100314.96
2023-04-07T03:31:49.814Z,100299.95
2023-04-07T03:35:20.570Z,100293.08
2023-04-07T03:39:03.934Z,100286.75
2023-04-07T03:42:33.728Z,100290.52
2023-04-07T04:01:07.293Z,100287.39
2023-04-07T04:04:56.175Z,100283.66
2023-04-07T04:08:24.272Z,100283.98
2023-04-07T04:16:42.217Z,100278.66
2023-04-07T04:20:11.861Z,100282.77
2023-04-07T04:24:19.141Z,100286.67
2023-04-07T04:32:31.557Z,100284.80
2023-04-07T04:36:01.773Z,100286.85
2023-04-07T04:39:09.518Z,100280.84
2023-04-07T04:43:12.586Z,100280.33
2023-04-07T04:46:50.566Z,100279.63
2023-04-07T04:50:31.554Z,100278.96
2023-04-07T04:54:02.217Z,100279.97
2023-04-07T04:57:07.822Z,100278.21
2023-04-07T05:00:39.376Z,100287.59
2023-04-07T05:04:07.317Z,100289.12
2023-04-07T05:07:53.220Z,100286.71
2023-04-07T05:11:32.976Z,100286.16
2023-04-07T05:19:19.726Z,100282.71
2023-04-07T05:23:05.270Z,100281.13
2023-04-07T05:26:40.519Z,100280.27
2023-04-07T05:30:11.919Z,100277.67
2023-04-07T05:36:55.643Z,100278.13
2023-04-07T05:40:50.280Z,100277.52
2023-04-07T05:44:04.373Z,100281.63
2023-04-07T05:47:22.604Z,100281.27
2023-04-07T05:50:40.786Z,100284.77
2023-04-07T05:53:51.832Z,100280.95
2023-04-07T05:57:30.238Z,100281.75
2023-04-07T06:01:18.058Z,100277.52
2023-04-07T06:04:49.337Z,100278.58
2023-04-07T06:08:19.366Z,100278.86
2023-04-07T06:11:58.173Z,100277.23
2023-04-07T06:15:30.963Z,100270.58
2023-04-07T06:23:03.052Z,100272.45
2023-04-07T06:34:06.267Z,100264.71
2023-04-07T06:37:38.218Z,100265.18
2023-04-07T06:41:14.169Z,100263.77
2023-04-07T06:44:28.750Z,100264.38
2023-04-07T06:48:01.987Z,100262.42
2023-04-07T06:51:17.350Z,100258.07
2023-04-07T06:54:46.669Z,100258.36
2023-04-07T06:58:20.571Z,100254.52
2023-04-07T07:01:56.158Z,100254.69
2023-04-07T07:05:29.245Z,100254.45
2023-04-07T07:09:03.687Z,100253.40
2023-04-07T07:12:39.121Z,100260.70
2023-04-07T07:16:09.636Z,100264.96
2023-04-07T07:19:55.686Z,100268.55
2023-04-07T07:23:26.181Z,100268.98
2023-04-07T07:26:56.253Z,100267.41
2023-04-07T07:30:30.498Z,100268.59
2023-04-07T07:37:19.719Z,100270.17
2023-04-07T07:40:49.315Z,100272.24
2023-04-07T07:44:22.467Z,100267.64
2023-04-07T07:47:59.860Z,100265.01
2023-04-07T07:51:32.619Z,100260.66
2023-04-07T07:54:23.897Z,100264.54
2023-04-07T07:57:40.476Z,100266.56
2023-04-07T08:04:56.433Z,100277.98
2023-04-07T08:08:26.547Z,100281.40
2023-04-07T08:11:56.607Z,100285.13
2023-04-07T08:15:27.728Z,100285.15
2023-04-07T08:19:02.560Z,100286.48
2023-04-07T08:22:35.948Z,100288.85
2023-04-07T08:26:07.058Z,100289.02
2023-04-07T08:29:32.368Z,100285.87
2023-04-07T08:33:02.207Z,100283.98
2023-04-07T08:36:31.380Z,100285.21
2023-04-07T08:40:00.892Z,100282.54
2023-04-07T08:43:33.058Z,100283.31
2023-04-07T08:47:02.708Z,100282.23
2023-04-07T08:50:31.866Z,100286.20
2023-04-07T08:54:04.399Z,100282.88
2023-04-07T08:57:07.121Z,100280.79
2023-04-07T09:00:40.193Z,100283.41
2023-04-07T09:04:11.397Z,100280.87
2023-04-07T09:07:41.139Z,100280.10
2023-04-07T09:11:15.915Z,100281.71
2023-04-07T09:14:45.543Z,100278.44
2023-04-07T09:18:20.946Z,100280.02
2023-04-07T09:21:56.797Z,100277.73
2023-04-07T09:25:25.892Z,100277.24
2023-04-07T09:28:56.067Z,100278.22
2023-04-07T09:32:26.305Z,100275.38
2023-04-07T09:35:37.435Z,100270.88
2023-04-07T09:39:09.716Z,100265.37
2023-04-07T09:42:11.777Z,100271.83
2023-04-07T09:45:43.244Z,100272.80
2023-04-07T09:49:22.872Z,100269.90
2023-04-07T09:53:07.406Z,100264.94
2023-04-07T09:56:45.764Z,100264.12
2023-04-07T10:03:44.838Z,100251.63
2023-04-07T10:11:02.795Z,100239.00
2023-04-07T10:14:59.798Z,100236.65
2023-04-07T10:18:32.766Z,100240.09
2023-04-07T10:21:46.791Z,100237.88
2023-04-07T10:25:41.355Z,100232.01
2023-04-07T10:28:50.794Z,100236.58
2023-04-07T10:32:32.725Z,100237.77
2023-04-07T10:36:06.819Z,100236.83
2023-04-07T10:39:48.398Z,100239.55
2023-04-07T10:43:42.316Z,100234.74
2023-04-07T10:47:48.828Z,100233.68
2023-04-07T10:51:26.330Z,100237.61
2023-04-07T10:59:38.297Z,100232.46
2023-04-07T11:07:01.821Z,100225.28
2023-04-07T11:10:03.138Z,100217.70
2023-04-07T11:13:10.587Z,100217.34
2023-04-07T11:16:25.027Z,100220.91
2023-04-07T11:19:43.787Z,100217.17
2023-04-07T11:24:01.736Z,100214.79
2023-04-07T11:27:17.778Z,100219.48
2023-04-07T11:30:57.200Z,100217.89
2023-04-07T11:34:05.701Z,100210.52
2023-04-07T11:37:37.627Z,100211.09
2023-04-07T11:40:59.737Z,100211.48
2023-04-07T11:44:04.357Z,100208.77
2023-04-07T11:47:47.783Z,100209.83
2023-04-07T11:51:21.707Z,100206.39
2023-04-07T11:54:40.788Z,100206.70
2023-04-07T11:58:13.557Z,100208.59
2023-04-07T12:04:48.732Z,100205.55
2023-04-07T12:08:11.658Z,100207.98
2023-04-07T12:15:15.979Z,100202.63
2023-04-07T12:22:08.404Z,100203.02
2023-04-07T12:25:39.952Z,100199.50
2023-04-07T12:29:08.419Z,100199.32
2023-04-07T12:32:21.788Z,100198.08
2023-04-07T12:36:03.843Z,100198.80
2023-04-07T12:39:49.777Z,100199.19
2023-04-07T12:43:14.779Z,100197.02
2023-04-07T12:53:51.003Z,100195.86
2023-04-07T12:57:14.717Z,100197.05
2023-04-07T13:00:57.279Z,100193.85
2023-04-07T13:04:14.501Z,100191.03
2023-04-07T13:08:39.631Z,100186.70
2023-04-07T13:12:05.283Z,100188.48
2023-04-07T13:16:04.414Z,100190.28
2023-04-07T13:22:49.201Z,100192.01
2023-04-07T13:36:50.519Z,100185.92
2023-04-07T13:40:19.322Z,100185.17
2023-04-07T13:43:52.304Z,100184.36
2023-04-07T13:47:12.150Z,100180.92
2023-04-07T13:50:29.711Z,100178.90
2023-04-07T13:53:47.894Z,100181.00
2023-04-07T13:57:15.561Z,100181.86
2023-04-07T14:00:36.271Z,100174.03
2023-04-07T14:07:28.399Z,100173.69
2023-04-07T14:11:05.709Z,100172.98
2023-04-07T14:14:44.331Z,100174.02
2023-04-07T14:18:42.271Z,100169.58
2023-04-07T14:22:13.777Z,100165.79
2023-04-07T14:25:46.478Z,100168.93
2023-04-07T14:29:01.771Z,100170.02
2023-04-07T14:32:05.725Z,100171.29
2023-04-07T14:35:16.230Z,100171.45
2023-04-07T14:46:25.784Z,100168.77
2023-04-07T14:52:32.728Z,100168.30
2023-04-07T14:56:23.699Z,100171.83
2023-04-07T15:00:08.148Z,100169.39
2023-04-07T15:03:51.478Z,100167.15
2023-04-07T15:06:56.667Z,100164.46
2023-04-07T15:09:55.822Z,100165.21
2023-04-07T15:21:08.815Z,100168.90
2023-04-07T15:25:06.716Z,100163.83
2023-04-07T15:28:44.704Z,100165.55
2023-04-07T15:39:14.298Z,100164.64
2023-04-07T15:45:56.938Z,100168.41
2023-04-07T15:49:36.346Z,100166.08
2023-04-07T15:53:11.508Z,100165.05
2023-04-07T16:00:31.526Z,100165.12
2023-04-07T16:04:02.002Z,100162.26
2023-04-07T16:18:31.609Z,100163.20
2023-04-07T16:22:13.189Z,100161.52
2023-04-07T16:29:08.155Z,100166.47
2023-04-07T16:32:44.568Z,100166.55
2023-04-07T16:36:03.550Z,100169.69
2023-04-07T16:39:13.041Z,100177.23
2023-04-07T16:43:25.743Z,100180.35
2023-04-07T16:47:05.466Z,100181.92
2023-04-07T16:50:16.517Z,100183.70
2023-04-07T16:58:07.359Z,100192.41
2023-04-07T17:01:33.880Z,100200.17
2023-04-07T17:05:05.537Z,100197.91
2023-04-07T17:08:37.262Z,100205.65
2023-04-07T17:12:07.241Z,100206.34
2023-04-07T17:15:35.913Z,100209.09
2023-04-07T17:19:07.408Z,100215.90
2023-04-07T17:22:50.042Z,100214.85
2023-04-07T17:30:14.069Z,100219.04
2023-04-07T17:33:45.657Z,100221.08
2023-04-07T17:37:13.985Z,100225.13
2023-04-07T17:40:46.944Z,100225.19
2023-04-07T17:48:20.291Z,100226.55
2023-04-07T17:51:49.490Z,100232.29
2023-04-07T18:06:43.020Z,100246.56
2023-04-07T18:10:33.550Z,100252.27
2023-04-07T18:14:10.868Z,100253.45
2023-04-07T18:47:30.430Z,100311.90
2023-04-07T18:59:23.848Z,100317.02
2023-04-07T19:02:56.026Z,100321.92
2023-04-07T19:06:32.083Z,100322.85
2023-04-07T19:09:43.022Z,100327.60
2023-04-07T19:13:11.703Z,100330.39
2023-04-07T19:16:44.532Z,100333.27
2023-04-07T19:20:15.124Z,100330.91
2023-04-07T19:23:48.368Z,100328.74
2023-04-07T19:27:34.033Z,100329.86
2023-04-07T19:31:21.368Z,100321.86
2023-04-07T19:34:28.478Z,100323.45
2023-04-07T19:38:33.228Z,100329.26
2023-04-07T19:58:16.235Z,100332.16
2023-04-07T20:02:00.595Z,100337.11
2023-04-07T20:04:53.482Z,100339.88
2023-04-07T20:08:37.529Z,100344.77
2023-04-07T20:12:10.027Z,100347.48
2023-04-07T20:15:48.304Z,100348.52
2023-04-07T20:18:32.485Z,100350.81
2023-04-07T20:22:05.046Z,100355.42
2023-04-07T20:25:47.210Z,100360.77
2023-04-07T20:28:58.486Z,100364.84
